createdAt,value
2017-07-02T00:00:50.530Z,5.50
2017-07-02T00:01:49.959Z,5.10
2017-07-02T00:02:49.658Z,5.20
2017-07-02T00:03:47.867Z,5.70
2017-07-02T00:04:50.972Z,5.80
2017-07-02T00:05:48.179Z,4.80
2017-07-02T00:06:48.887Z,5.20
2017-07-02T00:08:54.558Z,4.60
2017-07-02T00:09:51.395Z,4.50
2017-07-02T00:10:53.836Z,4.90
2017-07-02T00:11:52.391Z,5.00
2017-07-02T00:12:54.096Z,6.60
2017-07-02T00:13:55.723Z,4.70
2017-07-02T00:14:54.235Z,4.60
2017-07-02T00:15:51.002Z,6.40
2017-07-02T00:16:49.636Z,4.50
2017-07-02T00:17:49.047Z,4.90
2017-07-02T00:18:46.584Z,5.70
2017-07-02T00:19:44.011Z,6.80
2017-07-02T00:20:42.740Z,5.30
2017-07-02T00:21:41.414Z,5.80
2017-07-02T00:22:41.770Z,6.90
2017-07-02T00:23:45.123Z,5.20
2017-07-02T00:24:41.949Z,5.30
2017-07-02T00:25:45.408Z,5.40
2017-07-02T00:26:46.022Z,4.90
2017-07-02T00:27:44.546Z,5.70
2017-07-02T00:30:01.707Z,6.10
2017-07-02T00:31:04.687Z,5.70
2017-07-02T00:32:01.270Z,5.50
2017-07-02T00:33:03.103Z,5.60
2017-07-02T00:35:19.583Z,5.90
2017-07-02T00:36:19.188Z,6.30
2017-07-02T00:38:24.536Z,5.80
2017-07-02T00:39:21.859Z,6.00
2017-07-02T00:40:27.436Z,5.80
2017-07-02T00:41:26.903Z,5.90
2017-07-02T00:42:29.416Z,6.70
2017-07-02T00:43:29.899Z,6.60
2017-07-02T00:44:28.385Z,5.80
2017-07-02T00:45:27.811Z,5.90
2017-07-02T00:46:28.303Z,5.70
2017-07-02T00:47:25.831Z,6.80
2017-07-02T00:48:22.406Z,7.20
2017-07-02T00:49:21.333Z,6.20
2017-07-02T00:50:20.415Z,6.00
2017-07-02T00:51:24.953Z,5.50
2017-07-02T00:52:22.742Z,6.30
2017-07-02T00:53:25.320Z,6.10
2017-07-02T00:54:28.771Z,5.70
2017-07-02T00:55:26.211Z,6.00
2017-07-02T00:56:24.655Z,6.40
2017-07-02T00:57:25.088Z,6.90
2017-07-02T00:58:23.799Z,6.50
2017-07-02T00:59:21.307Z,6.10
2017-07-02T01:00:20.127Z,6.00
2017-07-02T01:01:22.804Z,5.60
2017-07-02T01:02:20.506Z,4.90
2017-07-02T01:03:20.279Z,5.60
2017-07-02T01:04:22.900Z,6.20
2017-07-02T01:05:22.627Z,7.00
2017-07-02T01:06:23.243Z,5.60
2017-07-02T01:07:21.503Z,5.70
2017-07-02T01:08:23.012Z,6.10
2017-07-02T01:09:22.385Z,6.20
2017-07-02T01:10:21.655Z,5.90
2017-07-02T01:11:20.350Z,6.20
2017-07-02T01:13:29.935Z,6.30
2017-07-02T01:15:35.591Z,6.30
2017-07-02T01:19:07.291Z,7.30
2017-07-02T01:20:10.978Z,7.20
2017-07-02T01:21:08.587Z,7.10
2017-07-02T01:24:36.890Z,7.70
2017-07-02T01:25:33.631Z,8.30
2017-07-02T01:26:39.987Z,7.50
2017-07-02T01:27:40.335Z,9.60
2017-07-02T01:28:37.932Z,9.10
2017-07-02T01:29:38.381Z,8.40
2017-07-02T01:30:43.885Z,16.50
2017-07-02T01:31:52.999Z,15.90
2017-07-02T01:32:57.482Z,18.70
2017-07-02T01:36:22.390Z,13.20
2017-07-02T01:37:21.858Z,13.60
2017-07-02T01:38:23.711Z,13.50
2017-07-02T01:41:55.559Z,15.80
2017-07-02T01:42:52.175Z,18.40
2017-07-02T01:43:54.756Z,17.00
2017-07-02T01:44:57.428Z,14.90
2017-07-02T01:45:54.073Z,16.30
2017-07-02T01:48:01.248Z,16.60
2017-07-02T01:50:16.093Z,16.00
2017-07-02T01:51:14.287Z,16.40
2017-07-02T01:52:15.675Z,16.10
2017-07-02T01:53:16.155Z,18.30
2017-07-02T01:54:14.800Z,19.30
2017-07-02T01:55:15.900Z,18.60
2017-07-02T01:56:18.441Z,18.50
2017-07-02T01:57:23.311Z,19.10
2017-07-02T01:58:20.913Z,17.20
2017-07-02T02:00:37.060Z,20.00
2017-07-02T02:02:43.528Z,19.90
2017-07-02T02:03:44.419Z,19.00
2017-07-02T02:05:53.019Z,19.20
2017-07-02T02:06:52.095Z,18.20
2017-07-02T02:07:51.847Z,18.00
2017-07-02T02:08:48.782Z,19.40
2017-07-02T02:09:50.243Z,18.10
2017-07-02T02:12:02.214Z,18.10
2017-07-02T02:12:59.251Z,17.70
2017-07-02T02:15:13.051Z,17.80
2017-07-02T02:16:10.943Z,18.80
2017-07-02T02:17:08.747Z,17.60
2017-07-02T02:18:07.374Z,17.70
2017-07-02T02:19:07.271Z,18.70
2017-07-02T02:21:17.139Z,19.20
2017-07-02T02:23:29.643Z,18.60
2017-07-02T02:25:43.587Z,20.80
2017-07-02T02:26:43.498Z,19.90
2017-07-02T02:27:46.375Z,17.10
2017-07-02T02:28:44.378Z,19.60
2017-07-02T02:29:41.201Z,19.90
2017-07-02T02:31:56.723Z,19.90
2017-07-02T02:32:54.419Z,22.00
2017-07-02T02:34:59.987Z,23.70
2017-07-02T02:35:58.631Z,22.70
2017-07-02T02:36:58.139Z,21.20
2017-07-02T02:38:00.079Z,21.10
2017-07-02T02:38:57.760Z,19.50
2017-07-02T02:39:58.968Z,23.40
2017-07-02T02:41:01.179Z,23.00
2017-07-02T02:41:59.463Z,21.30
2017-07-02T02:42:58.719Z,21.30
2017-07-02T02:43:57.042Z,23.90
2017-07-02T02:44:55.336Z,20.90
2017-07-02T02:45:55.691Z,24.20
2017-07-02T02:46:57.955Z,30.70
2017-07-02T02:47:54.600Z,26.20
2017-07-02T02:48:51.395Z,29.80
2017-07-02T02:49:55.255Z,33.00
2017-07-02T02:50:51.742Z,30.70
2017-07-02T02:51:50.719Z,31.50
2017-07-02T02:52:48.883Z,31.80
2017-07-02T02:53:46.594Z,30.50
2017-07-02T02:54:44.197Z,31.00
2017-07-02T02:55:40.999Z,32.50
2017-07-02T02:56:39.210Z,31.80
2017-07-02T02:57:37.040Z,33.00
2017-07-02T02:58:35.244Z,30.80
2017-07-02T02:59:34.679Z,32.90
2017-07-02T03:01:40.107Z,32.20
2017-07-02T03:02:36.598Z,33.00
2017-07-02T03:03:33.743Z,32.40
2017-07-02T03:04:30.499Z,30.80
2017-07-02T03:05:27.099Z,34.80
2017-07-02T03:06:24.603Z,32.90
2017-07-02T03:07:21.209Z,34.60
2017-07-02T03:08:19.351Z,32.70
2017-07-02T03:09:17.586Z,33.60
2017-07-02T03:10:14.765Z,30.50
2017-07-02T03:11:12.406Z,29.60
2017-07-02T03:12:08.902Z,29.80
2017-07-02T03:13:08.377Z,32.90
2017-07-02T03:14:10.537Z,33.00
2017-07-02T03:15:07.963Z,35.30
2017-07-02T03:16:06.725Z,33.10
2017-07-02T03:17:06.219Z,32.80
2017-07-02T03:18:03.851Z,35.30
2017-07-02T03:19:01.994Z,33.90
2017-07-02T03:19:59.583Z,36.10
2017-07-02T03:20:57.261Z,35.90
2017-07-02T03:21:57.147Z,34.50
2017-07-02T03:22:54.755Z,34.00
2017-07-02T03:23:52.624Z,33.60
2017-07-02T03:24:49.263Z,32.20
2017-07-02T03:25:49.755Z,33.40
2017-07-02T03:26:47.755Z,34.30
2017-07-02T03:27:48.012Z,33.70
2017-07-02T03:28:47.619Z,33.40
2017-07-02T03:29:45.259Z,33.60
2017-07-02T03:30:42.256Z,30.70
2017-07-02T03:31:41.264Z,32.90
2017-07-02T03:32:38.777Z,34.60
2017-07-02T03:33:36.962Z,34.60
2017-07-02T03:34:34.454Z,36.40
2017-07-02T03:35:32.102Z,33.10
2017-07-02T03:36:30.031Z,33.60
2017-07-02T03:37:27.799Z,33.70
2017-07-02T03:38:24.820Z,35.70
2017-07-02T03:39:22.166Z,34.30
2017-07-02T03:40:19.262Z,33.90
2017-07-02T03:41:16.867Z,33.00
2017-07-02T03:42:14.159Z,33.40
2017-07-02T03:43:12.323Z,33.00
2017-07-02T03:44:09.532Z,34.90
2017-07-02T03:45:06.907Z,32.00
2017-07-02T03:46:05.334Z,32.20
2017-07-02T03:47:02.432Z,32.10
2017-07-02T03:48:03.407Z,31.30
2017-07-02T03:49:00.012Z,31.70
2017-07-02T03:49:57.819Z,30.40
2017-07-02T03:50:55.591Z,30.50
2017-07-02T03:51:52.544Z,31.80
2017-07-02T03:52:49.352Z,31.90
2017-07-02T03:53:47.069Z,31.40
2017-07-02T03:54:44.276Z,28.40
2017-07-02T03:55:42.846Z,31.30
2017-07-02T03:56:41.719Z,29.90
2017-07-02T03:57:38.624Z,28.80
2017-07-02T03:58:37.506Z,32.20
2017-07-02T03:59:36.055Z,28.30
2017-07-02T04:00:33.882Z,30.70
2017-07-02T04:01:31.159Z,29.20
2017-07-02T04:02:29.522Z,29.30
2017-07-02T04:03:26.583Z,29.30
2017-07-02T04:04:23.968Z,30.00
2017-07-02T04:05:20.834Z,26.70
2017-07-02T04:06:17.643Z,27.30
2017-07-02T04:07:14.129Z,28.00
2017-07-02T04:08:10.935Z,28.60
2017-07-02T04:09:07.335Z,30.00
2017-07-02T04:10:04.255Z,27.10
2017-07-02T04:11:00.658Z,26.40
2017-07-02T04:11:57.143Z,26.80
2017-07-02T04:12:53.604Z,25.10
2017-07-02T04:13:50.216Z,27.50
2017-07-02T04:14:46.924Z,28.60
2017-07-02T04:15:43.306Z,26.90
2017-07-02T04:16:40.470Z,26.80
2017-07-02T04:17:36.882Z,27.60
2017-07-02T04:18:33.476Z,26.60
2017-07-02T04:19:29.822Z,25.90
2017-07-02T04:20:26.182Z,25.20
2017-07-02T04:21:22.422Z,27.90
2017-07-02T04:22:18.670Z,27.20
2017-07-02T04:23:14.897Z,26.90
2017-07-02T04:24:11.130Z,27.30
2017-07-02T04:25:07.351Z,28.00
2017-07-02T04:26:03.646Z,26.20
2017-07-02T04:26:59.950Z,25.50
2017-07-02T04:27:56.234Z,25.60
2017-07-02T04:28:52.527Z,25.00
2017-07-02T04:29:48.794Z,24.60
2017-07-02T04:30:45.034Z,26.80
2017-07-02T04:31:41.258Z,24.60
2017-07-02T04:32:37.499Z,25.30
2017-07-02T04:33:33.718Z,25.60
2017-07-02T04:34:29.938Z,27.10
2017-07-02T04:35:26.170Z,26.20
2017-07-02T04:36:22.394Z,27.60
2017-07-02T04:37:18.640Z,26.30
2017-07-02T04:38:14.862Z,23.90
2017-07-02T04:39:11.102Z,25.00
2017-07-02T04:40:07.762Z,24.20
2017-07-02T04:41:04.007Z,24.30
2017-07-02T04:42:00.239Z,25.30
2017-07-02T04:42:56.487Z,26.70
2017-07-02T04:43:52.717Z,28.10
2017-07-02T04:44:48.945Z,24.20
2017-07-02T04:45:45.934Z,24.50
2017-07-02T04:46:42.158Z,24.30
2017-07-02T04:47:38.445Z,25.50
2017-07-02T04:48:34.674Z,25.70
2017-07-02T04:49:30.917Z,25.80
2017-07-02T04:50:27.150Z,24.20
2017-07-02T04:51:23.386Z,25.00
2017-07-02T04:52:19.654Z,26.00
2017-07-02T04:53:15.890Z,25.80
2017-07-02T04:54:12.122Z,23.90
2017-07-02T04:55:08.363Z,25.60
2017-07-02T04:56:04.586Z,24.90
2017-07-02T04:57:00.823Z,23.50
2017-07-02T04:57:57.041Z,23.50
2017-07-02T04:58:53.272Z,25.30
2017-07-02T04:59:49.510Z,24.90
2017-07-02T05:00:45.749Z,23.70
2017-07-02T05:01:41.991Z,23.00
2017-07-02T05:02:38.225Z,24.40
2017-07-02T05:03:34.478Z,22.60
2017-07-02T05:04:30.710Z,22.50
2017-07-02T05:05:26.941Z,24.10
2017-07-02T05:06:23.203Z,24.40
2017-07-02T05:07:19.438Z,24.20
2017-07-02T05:08:15.681Z,24.50
2017-07-02T05:09:11.922Z,23.10
2017-07-02T05:10:08.150Z,22.90
2017-07-02T05:11:04.374Z,23.80
2017-07-02T05:12:00.607Z,24.80
2017-07-02T05:12:56.858Z,25.20
2017-07-02T05:13:53.090Z,24.70
2017-07-02T05:14:49.327Z,24.60
2017-07-02T05:15:45.546Z,24.00
2017-07-02T05:16:41.778Z,25.50
2017-07-02T05:17:38.016Z,25.10
2017-07-02T05:18:34.234Z,25.00
2017-07-02T05:19:30.506Z,24.40
2017-07-02T05:20:26.730Z,24.10
2017-07-02T05:21:22.958Z,24.40
2017-07-02T05:22:19.186Z,25.70
2017-07-02T05:23:15.427Z,26.50
2017-07-02T05:24:11.654Z,24.00
2017-07-02T05:25:07.895Z,23.30
2017-07-02T05:26:04.138Z,22.70
2017-07-02T05:27:00.377Z,22.90
2017-07-02T05:27:56.602Z,22.80
2017-07-02T05:28:52.838Z,20.90
2017-07-02T05:29:49.053Z,24.10
2017-07-02T05:30:45.301Z,23.40
2017-07-02T05:31:41.522Z,21.90
2017-07-02T05:32:37.770Z,23.20
2017-07-02T05:33:34.013Z,22.30
2017-07-02T05:34:31.186Z,21.40
2017-07-02T05:35:27.444Z,22.50
2017-07-02T05:36:23.686Z,23.80
2017-07-02T05:37:19.919Z,22.50
2017-07-02T05:38:16.149Z,22.30
2017-07-02T05:39:12.380Z,24.50
2017-07-02T05:40:08.614Z,24.00
2017-07-02T05:41:04.854Z,21.90
2017-07-02T05:42:01.109Z,23.60
2017-07-02T05:42:57.329Z,23.90
2017-07-02T05:43:53.557Z,22.90
2017-07-02T05:44:49.793Z,23.20
2017-07-02T05:45:46.014Z,21.10
2017-07-02T05:46:42.247Z,24.40
2017-07-02T05:47:38.504Z,22.50
2017-07-02T05:48:34.736Z,22.90
2017-07-02T05:49:30.957Z,24.60
2017-07-02T05:50:27.181Z,23.00
2017-07-02T05:51:23.399Z,23.60
2017-07-02T05:52:19.650Z,21.60
2017-07-02T05:53:15.883Z,23.00
2017-07-02T05:54:12.113Z,22.70
2017-07-02T05:55:08.341Z,22.20
2017-07-02T05:56:04.553Z,21.60
2017-07-02T05:57:00.797Z,22.70
2017-07-02T05:57:57.530Z,20.50
2017-07-02T05:58:53.758Z,22.10
2017-07-02T05:59:49.998Z,21.90
2017-07-02T06:00:46.242Z,20.80
2017-07-02T06:01:42.502Z,20.40
2017-07-02T06:02:38.775Z,21.30
2017-07-02T06:03:35.002Z,21.10
2017-07-02T06:04:31.230Z,20.60
2017-07-02T06:05:27.474Z,22.10
2017-07-02T06:06:23.702Z,22.50
2017-07-02T06:07:19.930Z,21.10
2017-07-02T06:08:16.166Z,20.20
2017-07-02T06:09:12.402Z,21.20
2017-07-02T06:10:08.630Z,20.00
2017-07-02T06:11:04.906Z,21.50
2017-07-02T06:12:01.131Z,20.10
2017-07-02T06:12:57.362Z,21.50
2017-07-02T06:13:53.606Z,23.30
2017-07-02T06:14:49.834Z,20.00
2017-07-02T06:15:46.058Z,21.30
2017-07-02T06:16:42.294Z,21.20
2017-07-02T06:17:38.518Z,20.80
2017-07-02T06:18:34.767Z,20.80
2017-07-02T06:19:31.006Z,21.00
2017-07-02T06:20:27.246Z,18.60
2017-07-02T06:21:23.466Z,19.60
2017-07-02T06:22:19.686Z,20.80
2017-07-02T06:23:15.921Z,19.20
2017-07-02T06:24:12.165Z,19.10
2017-07-02T06:25:08.390Z,19.40
2017-07-02T06:26:04.634Z,20.00
2017-07-02T06:27:00.858Z,19.90
2017-07-02T06:27:57.090Z,20.70
2017-07-02T06:28:53.307Z,18.50
2017-07-02T06:29:49.559Z,17.90
2017-07-02T06:30:45.803Z,20.10
2017-07-02T06:31:42.035Z,19.60
2017-07-02T06:32:38.262Z,19.40
2017-07-02T06:33:34.482Z,20.30
2017-07-02T06:34:30.722Z,19.10
2017-07-02T06:35:26.970Z,20.20
2017-07-02T06:36:23.186Z,19.50
2017-07-02T06:37:19.409Z,20.00
2017-07-02T06:38:15.633Z,17.50
2017-07-02T06:39:11.873Z,20.10
2017-07-02T06:40:08.117Z,18.90
2017-07-02T06:41:04.348Z,17.50
2017-07-02T06:42:00.579Z,18.80
2017-07-02T06:42:56.813Z,17.70
2017-07-02T06:43:53.037Z,17.90
2017-07-02T06:44:49.266Z,18.30
2017-07-02T06:45:45.510Z,18.20
2017-07-02T06:46:41.744Z,18.60
2017-07-02T06:47:37.965Z,21.00
2017-07-02T06:48:34.186Z,17.30
2017-07-02T06:49:30.426Z,18.00
2017-07-02T06:50:26.667Z,18.40
2017-07-02T06:51:22.902Z,17.20
2017-07-02T06:52:19.158Z,19.10
2017-07-02T06:53:15.382Z,18.20
2017-07-02T06:54:11.613Z,17.20
2017-07-02T06:55:07.870Z,16.20
2017-07-02T06:56:04.129Z,18.20
2017-07-02T06:57:00.366Z,19.50
2017-07-02T06:57:56.594Z,17.90
2017-07-02T06:58:52.846Z,18.10
2017-07-02T06:59:49.077Z,17.00
2017-07-02T07:00:45.297Z,19.00
2017-07-02T07:01:41.538Z,19.00
2017-07-02T07:02:37.778Z,18.70
2017-07-02T07:03:34.001Z,21.10
2017-07-02T07:04:30.241Z,18.90
2017-07-02T07:05:26.503Z,20.30
2017-07-02T07:06:22.754Z,19.40
2017-07-02T07:07:19.001Z,21.10
2017-07-02T07:08:15.234Z,19.90
2017-07-02T07:09:11.467Z,22.90
2017-07-02T07:10:07.706Z,21.20
2017-07-02T07:11:03.930Z,19.10
2017-07-02T07:12:00.172Z,18.50
2017-07-02T07:12:56.426Z,18.40
2017-07-02T07:13:52.655Z,20.10
2017-07-02T07:14:48.902Z,20.60
2017-07-02T07:15:45.145Z,20.90
2017-07-02T07:16:41.380Z,19.90
2017-07-02T07:17:37.626Z,19.90
2017-07-02T07:18:33.854Z,18.20
2017-07-02T07:19:30.086Z,18.00
2017-07-02T07:20:26.317Z,16.50
2017-07-02T07:21:22.555Z,18.20
2017-07-02T07:22:18.792Z,18.90
2017-07-02T07:23:15.038Z,18.00
2017-07-02T07:24:11.270Z,16.60
2017-07-02T07:25:07.494Z,16.80
2017-07-02T07:26:03.721Z,19.50
2017-07-02T07:26:59.982Z,18.00
2017-07-02T07:27:56.214Z,20.20
2017-07-02T07:28:52.490Z,15.80
2017-07-02T07:29:48.722Z,19.80
2017-07-02T07:30:44.963Z,18.90
2017-07-02T07:31:41.202Z,17.80
2017-07-02T07:32:37.434Z,18.50
2017-07-02T07:33:33.662Z,16.70
2017-07-02T07:34:29.915Z,18.00
2017-07-02T07:35:26.154Z,18.00
2017-07-02T07:36:22.382Z,15.50
2017-07-02T07:37:18.610Z,15.70
2017-07-02T07:38:14.850Z,15.50
2017-07-02T07:39:11.090Z,16.50
2017-07-02T07:40:07.314Z,13.00
2017-07-02T07:41:03.559Z,15.80
2017-07-02T07:41:59.798Z,17.40
2017-07-02T07:42:56.038Z,16.30
2017-07-02T07:43:52.258Z,16.90
2017-07-02T07:44:48.493Z,16.70
2017-07-02T07:45:44.719Z,16.60
2017-07-02T07:46:40.966Z,16.40
2017-07-02T07:47:37.202Z,16.60
2017-07-02T07:48:33.459Z,15.10
2017-07-02T07:49:29.690Z,15.90
2017-07-02T07:50:25.938Z,16.60
2017-07-02T07:51:22.191Z,15.80
2017-07-02T07:52:18.442Z,15.90
2017-07-02T07:53:14.690Z,15.90
2017-07-02T07:54:10.930Z,15.00
2017-07-02T07:55:07.178Z,16.10
2017-07-02T07:56:03.450Z,14.60
2017-07-02T07:56:59.735Z,15.60
2017-07-02T07:57:56.034Z,14.80
2017-07-02T07:58:52.314Z,14.80
2017-07-02T07:59:48.551Z,16.20
2017-07-02T08:00:44.850Z,16.30
2017-07-02T08:01:41.130Z,16.10
2017-07-02T08:02:37.390Z,16.60
2017-07-02T08:03:33.632Z,14.80
2017-07-02T08:04:29.869Z,15.20
2017-07-02T08:05:26.103Z,13.90
2017-07-02T08:06:22.353Z,15.20
2017-07-02T08:07:18.578Z,13.30
2017-07-02T08:08:14.833Z,14.70
2017-07-02T08:09:11.057Z,14.20
2017-07-02T08:10:07.281Z,14.10
2017-07-02T08:11:03.538Z,14.20
2017-07-02T08:11:59.790Z,14.40
2017-07-02T08:12:56.020Z,14.80
2017-07-02T08:13:52.267Z,15.00
2017-07-02T08:14:48.509Z,15.50
2017-07-02T08:15:44.746Z,12.90
2017-07-02T08:16:41.001Z,12.90
2017-07-02T08:17:37.226Z,13.00
2017-07-02T08:18:33.460Z,12.00
2017-07-02T08:19:29.691Z,12.20
2017-07-02T08:20:25.919Z,13.70
2017-07-02T08:21:22.154Z,12.60
2017-07-02T08:22:18.415Z,13.40
2017-07-02T08:23:14.649Z,13.30
2017-07-02T08:24:10.878Z,12.60
2017-07-02T08:25:07.135Z,12.30
2017-07-02T08:26:03.362Z,12.00
2017-07-02T08:26:59.593Z,13.30
2017-07-02T08:27:55.840Z,12.40
2017-07-02T08:28:52.066Z,11.50
2017-07-02T08:29:48.310Z,11.90
2017-07-02T08:30:44.550Z,12.60
2017-07-02T08:31:40.782Z,11.80
2017-07-02T08:32:37.046Z,12.40
2017-07-02T08:33:33.325Z,13.40
2017-07-02T08:34:29.586Z,13.50
2017-07-02T08:35:25.818Z,11.50
2017-07-02T08:36:22.041Z,11.10
2017-07-02T08:37:18.279Z,11.00
2017-07-02T08:38:14.522Z,10.80
2017-07-02T08:39:11.394Z,12.10
2017-07-02T08:40:07.626Z,12.40
2017-07-02T08:41:03.854Z,10.90
2017-07-02T08:42:00.094Z,11.60
2017-07-02T08:42:56.327Z,10.70
2017-07-02T08:43:52.586Z,12.00
2017-07-02T08:44:49.330Z,10.80
2017-07-02T08:45:45.554Z,11.10
2017-07-02T08:46:41.779Z,10.00
2017-07-02T08:47:38.006Z,10.80
2017-07-02T08:48:34.268Z,10.90
2017-07-02T08:49:30.493Z,10.90
2017-07-02T08:50:26.746Z,11.00
2017-07-02T08:51:22.981Z,9.80
2017-07-02T08:52:19.207Z,10.60
2017-07-02T08:53:15.442Z,11.30
2017-07-02T08:54:11.682Z,10.90
2017-07-02T08:55:07.906Z,10.20
2017-07-02T08:56:04.155Z,11.60
2017-07-02T08:57:00.395Z,9.80
2017-07-02T08:57:56.634Z,9.20
2017-07-02T08:58:52.870Z,8.60
2017-07-02T08:59:49.106Z,9.50
2017-07-02T09:00:45.373Z,10.80
2017-07-02T09:01:41.608Z,10.20
2017-07-02T09:02:37.843Z,10.90
2017-07-02T09:03:34.074Z,10.40
2017-07-02T09:04:30.321Z,10.30
2017-07-02T09:05:26.550Z,10.20
2017-07-02T09:06:22.773Z,10.40
2017-07-02T09:07:19.013Z,11.70
2017-07-02T09:08:15.238Z,9.20
2017-07-02T09:09:11.490Z,10.30
2017-07-02T09:10:07.717Z,10.30
2017-07-02T09:11:03.991Z,11.40
2017-07-02T09:12:00.202Z,10.20
2017-07-02T09:12:56.433Z,9.40
2017-07-02T09:13:52.695Z,9.10
2017-07-02T09:14:48.968Z,10.30
2017-07-02T09:15:45.225Z,10.70
2017-07-02T09:16:41.454Z,9.80
2017-07-02T09:17:37.692Z,10.10
2017-07-02T09:18:33.925Z,10.50
2017-07-02T09:19:30.150Z,10.50
2017-07-02T09:20:26.401Z,10.80
2017-07-02T09:21:22.630Z,11.40
2017-07-02T09:22:18.862Z,11.20
2017-07-02T09:23:15.126Z,9.00
2017-07-02T09:24:11.366Z,10.80
2017-07-02T09:25:07.638Z,10.90
2017-07-02T09:26:03.881Z,11.60
2017-07-02T09:27:00.157Z,10.40
2017-07-02T09:27:56.354Z,10.30
2017-07-02T09:28:52.590Z,10.50
2017-07-02T09:29:49.326Z,11.30
2017-07-02T09:30:45.577Z,11.20
2017-07-02T09:31:41.821Z,11.40
2017-07-02T09:32:38.059Z,11.50
2017-07-02T09:33:34.298Z,10.70
2017-07-02T09:34:30.542Z,11.10
2017-07-02T09:35:26.815Z,10.30
2017-07-02T09:36:23.047Z,10.40
2017-07-02T09:37:19.290Z,12.00
2017-07-02T09:38:15.533Z,14.70
2017-07-02T09:39:11.786Z,11.90
2017-07-02T09:40:07.987Z,14.00
2017-07-02T09:41:04.226Z,12.20
2017-07-02T09:42:00.454Z,12.00
2017-07-02T09:42:56.682Z,12.60
2017-07-02T09:43:52.955Z,10.60
2017-07-02T09:44:49.213Z,9.90
2017-07-02T09:45:45.475Z,11.10
2017-07-02T09:46:41.698Z,8.30
2017-07-02T09:47:37.929Z,8.90
2017-07-02T09:48:34.155Z,8.90
2017-07-02T09:49:30.396Z,8.70
2017-07-02T09:50:26.621Z,7.70
2017-07-02T09:51:22.863Z,9.20
2017-07-02T09:52:19.109Z,9.30
2017-07-02T09:53:15.348Z,8.70
2017-07-02T09:54:11.590Z,9.10
2017-07-02T09:55:07.834Z,8.10
2017-07-02T09:56:04.066Z,9.00
2017-07-02T09:57:00.311Z,7.30
2017-07-02T09:57:56.543Z,7.40
2017-07-02T09:58:52.777Z,8.30
2017-07-02T09:59:49.027Z,7.70
2017-07-02T10:00:45.264Z,8.20
2017-07-02T10:01:41.521Z,8.20
2017-07-02T10:02:37.762Z,7.10
2017-07-02T10:03:34.000Z,7.30
2017-07-02T10:04:30.238Z,7.20
2017-07-02T10:05:26.487Z,7.50
2017-07-02T10:06:22.719Z,7.20
2017-07-02T10:07:18.969Z,7.10
2017-07-02T10:08:15.197Z,6.00
2017-07-02T10:09:11.645Z,7.30
2017-07-02T10:10:07.887Z,6.90
2017-07-02T10:11:04.121Z,6.00
2017-07-02T10:12:00.365Z,6.50
2017-07-02T10:12:56.624Z,6.00
2017-07-02T10:13:52.874Z,6.40
2017-07-02T10:14:49.108Z,7.50
2017-07-02T10:15:45.343Z,6.00
2017-07-02T10:16:41.582Z,6.10
2017-07-02T10:17:37.846Z,6.10
2017-07-02T10:18:34.095Z,6.10
2017-07-02T10:19:30.339Z,6.00
2017-07-02T10:20:26.596Z,6.10
2017-07-02T10:21:22.862Z,5.90
2017-07-02T10:22:19.095Z,6.10
2017-07-02T10:23:15.347Z,5.30
2017-07-02T10:24:11.583Z,5.50
2017-07-02T10:25:07.851Z,6.60
2017-07-02T10:26:04.131Z,4.90
2017-07-02T10:27:00.362Z,5.50
2017-07-02T10:27:56.587Z,5.90
2017-07-02T10:28:52.850Z,5.20
2017-07-02T10:29:49.103Z,5.60
2017-07-02T10:30:45.337Z,5.30
2017-07-02T10:31:41.574Z,5.30
2017-07-02T10:32:37.801Z,4.80
2017-07-02T10:33:34.054Z,3.90
2017-07-02T10:34:30.286Z,4.60
2017-07-02T10:35:26.520Z,4.30
2017-07-02T10:36:22.750Z,5.10
2017-07-02T10:37:18.982Z,5.00
2017-07-02T10:38:15.220Z,4.10
2017-07-02T10:39:11.473Z,4.00
2017-07-02T10:40:07.712Z,4.40
2017-07-02T10:41:03.943Z,5.10
2017-07-02T10:42:00.193Z,3.60
2017-07-02T10:42:56.495Z,4.10
2017-07-02T10:43:52.749Z,4.00
2017-07-02T10:44:49.050Z,4.50
2017-07-02T10:45:45.282Z,3.60
2017-07-02T10:46:41.526Z,3.80
2017-07-02T10:47:37.793Z,3.90
2017-07-02T10:48:34.024Z,4.10
2017-07-02T10:49:30.266Z,4.10
2017-07-02T10:50:26.503Z,4.10
2017-07-02T10:51:22.722Z,4.00
2017-07-02T10:52:18.967Z,4.00
2017-07-02T10:53:15.251Z,4.30
2017-07-02T10:54:11.618Z,3.80
2017-07-02T10:55:07.842Z,4.30
2017-07-02T10:56:04.098Z,4.90
2017-07-02T10:57:00.346Z,4.00
2017-07-02T10:57:56.570Z,3.60
2017-07-02T10:58:52.815Z,3.90
2017-07-02T10:59:49.084Z,4.20
2017-07-02T11:00:45.322Z,4.30
2017-07-02T11:01:41.558Z,4.40
2017-07-02T11:02:37.782Z,4.40
2017-07-02T11:03:34.010Z,4.50
2017-07-02T11:04:30.246Z,5.20
2017-07-02T11:05:26.505Z,3.90
2017-07-02T11:06:22.734Z,4.70
2017-07-02T11:07:18.974Z,4.50
2017-07-02T11:08:15.198Z,4.80
2017-07-02T11:09:11.435Z,4.40
2017-07-02T11:10:07.690Z,5.20
2017-07-02T11:11:03.918Z,6.00
2017-07-02T11:12:00.158Z,5.30
2017-07-02T11:12:56.378Z,4.90
2017-07-02T11:13:52.598Z,4.50
2017-07-02T11:14:48.839Z,5.30
2017-07-02T11:15:45.078Z,5.00
2017-07-02T11:16:41.301Z,5.00
2017-07-02T11:17:37.527Z,5.50
2017-07-02T11:18:33.750Z,5.20
2017-07-02T11:19:29.986Z,5.10
2017-07-02T11:20:26.245Z,4.50
2017-07-02T11:21:22.486Z,4.80
2017-07-02T11:22:18.705Z,4.40
2017-07-02T11:23:14.945Z,4.30
2017-07-02T11:24:11.174Z,5.00
2017-07-02T11:25:07.410Z,4.90
2017-07-02T11:26:03.658Z,4.90
2017-07-02T11:26:59.887Z,5.20
2017-07-02T11:27:56.117Z,5.10
2017-07-02T11:28:52.339Z,5.50
2017-07-02T11:29:48.558Z,5.80
2017-07-02T11:30:44.786Z,5.10
2017-07-02T11:31:41.023Z,4.40
2017-07-02T11:32:37.242Z,5.10
2017-07-02T11:33:33.477Z,5.60
2017-07-02T11:34:29.715Z,4.80
2017-07-02T11:35:25.959Z,5.10
2017-07-02T11:36:22.271Z,5.20
2017-07-02T11:37:18.578Z,4.20
2017-07-02T11:38:14.823Z,4.60
2017-07-02T11:39:11.077Z,4.50
2017-07-02T11:40:07.310Z,4.80
2017-07-02T11:41:03.534Z,4.80
2017-07-02T11:41:59.783Z,4.50
2017-07-02T11:42:56.011Z,5.10
2017-07-02T11:43:52.278Z,4.90
2017-07-02T11:44:48.493Z,4.90
2017-07-02T11:45:44.717Z,5.00
2017-07-02T11:46:40.971Z,5.80
2017-07-02T11:47:37.205Z,6.10
2017-07-02T11:48:33.450Z,5.70
2017-07-02T11:49:29.682Z,4.90
2017-07-02T11:50:25.902Z,5.10
2017-07-02T11:51:22.128Z,5.40
2017-07-02T11:52:18.410Z,4.90
2017-07-02T11:53:14.642Z,5.30
2017-07-02T11:54:10.862Z,4.70
2017-07-02T11:55:07.098Z,5.40
2017-07-02T11:56:03.318Z,5.90
2017-07-02T11:56:59.589Z,4.80
2017-07-02T11:57:55.873Z,4.80
2017-07-02T11:58:52.102Z,4.80
2017-07-02T11:59:48.326Z,4.40
2017-07-02T12:00:44.565Z,4.10
2017-07-02T12:01:40.793Z,5.30
2017-07-02T12:02:37.030Z,5.30
2017-07-02T12:03:33.271Z,5.20
2017-07-02T12:04:29.514Z,6.10
2017-07-02T12:05:25.742Z,4.60
2017-07-02T12:06:21.982Z,4.60
2017-07-02T12:07:18.218Z,5.90
2017-07-02T12:08:14.473Z,4.50
2017-07-02T12:09:10.714Z,4.40
2017-07-02T12:10:06.934Z,4.90
2017-07-02T12:11:03.157Z,5.40
2017-07-02T12:11:59.382Z,5.20
2017-07-02T12:12:55.638Z,4.60
2017-07-02T12:13:51.958Z,5.60
2017-07-02T12:14:48.182Z,4.80
2017-07-02T12:15:44.443Z,5.10
2017-07-02T12:16:40.693Z,4.60
2017-07-02T12:17:36.917Z,4.30
2017-07-02T12:18:33.142Z,4.50
2017-07-02T12:19:29.382Z,3.60
2017-07-02T12:20:25.613Z,3.50
2017-07-02T12:21:21.842Z,3.50
2017-07-02T12:22:18.082Z,2.90
2017-07-02T12:23:14.323Z,3.40
2017-07-02T12:24:10.549Z,3.10
2017-07-02T12:25:06.785Z,3.30
2017-07-02T12:26:03.010Z,2.80
2017-07-02T12:26:59.240Z,2.70
2017-07-02T12:27:55.497Z,2.50
2017-07-02T12:28:51.734Z,2.10
2017-07-02T12:29:47.974Z,2.40
2017-07-02T12:30:44.210Z,2.70
2017-07-02T12:31:40.511Z,2.80
2017-07-02T12:32:36.750Z,2.70
2017-07-02T12:33:32.970Z,2.80
2017-07-02T12:34:29.193Z,2.90
2017-07-02T12:35:25.463Z,2.50
2017-07-02T12:36:21.703Z,2.80
2017-07-02T12:37:17.943Z,2.40
2017-07-02T12:38:14.270Z,2.90
2017-07-02T12:39:10.510Z,2.40
2017-07-02T12:40:06.734Z,2.40
2017-07-02T12:41:02.977Z,2.00
2017-07-02T12:41:59.218Z,2.10
2017-07-02T12:42:55.459Z,2.20
2017-07-02T12:43:51.706Z,2.10
2017-07-02T12:44:47.946Z,1.80
2017-07-02T12:45:44.191Z,2.30
2017-07-02T12:46:40.433Z,2.20
2017-07-02T12:47:36.679Z,1.70
2017-07-02T12:48:33.076Z,2.00
2017-07-02T12:49:29.328Z,2.40
2017-07-02T12:50:25.556Z,1.90
2017-07-02T12:51:21.824Z,2.00
2017-07-02T12:52:18.861Z,3.40
2017-07-02T12:53:15.262Z,1.90
2017-07-02T12:54:11.538Z,2.20
2017-07-02T12:55:07.774Z,1.80
2017-07-02T12:56:03.998Z,2.10
2017-07-02T12:57:00.253Z,2.30